sensor_id;sensor_type;location;lat;lon;timestamp;temperature;humidity
78514;SHT31;67814;51.976;5.810;2023-07-24T00:00:02;21.2;73.3
78514;SHT31;67814;51.976;5.810;2023-07-24T00:02:31;21.2;73.4
78514;SHT31;67814;51.976;5.810;2023-07-24T00:05:00;21.2;73.6
78514;SHT31;67814;51.976;5.810;2023-07-24T00:07:28;21.2;73.4
78514;SHT31;67814;51.976;5.810;2023-07-24T00:09:57;21.2;73.4
78514;SHT31;67814;51.976;5.810;2023-07-24T00:12:27;21.2;73.4
78514;SHT31;67814;51.976;5.810;2023-07-24T00:14:56;21.2;73.4
78514;SHT31;67814;51.976;5.810;2023-07-24T00:17:24;21.2;73.6
78514;SHT31;67814;51.976;5.810;2023-07-24T00:19:53;21.1;73.6
78514;SHT31;67814;51.976;5.810;2023-07-24T00:22:21;21.1;73.8
78514;SHT31;67814;51.976;5.810;2023-07-24T00:24:50;21.1;74.1
78514;SHT31;67814;51.976;5.810;2023-07-24T00:27:18;21.1;74.0
78514;SHT31;67814;51.976;5.810;2023-07-24T00:29:49;21.1;73.9
78514;SHT31;67814;51.976;5.810;2023-07-24T00:32:18;21.1;74.0
78514;SHT31;67814;51.976;5.810;2023-07-24T00:34:46;21.1;73.7
78514;SHT31;67814;51.976;5.810;2023-07-24T00:37:15;21.1;73.6
78514;SHT31;67814;51.976;5.810;2023-07-24T00:39:43;21.1;73.6
78514;SHT31;67814;51.976;5.810;2023-07-24T00:42:12;21.2;73.7
78514;SHT31;67814;51.976;5.810;2023-07-24T00:44:41;21.2;73.5
78514;SHT31;67814;51.976;5.810;2023-07-24T00:47:09;21.1;73.5
78514;SHT31;67814;51.976;5.810;2023-07-24T00:49:38;21.1;73.3
78514;SHT31;67814;51.976;5.810;2023-07-24T00:52:07;21.1;73.5
78514;SHT31;67814;51.976;5.810;2023-07-24T00:54:36;21.1;73.3
78514;SHT31;67814;51.976;5.810;2023-07-24T00:57:06;21.1;73.2
78514;SHT31;67814;51.976;5.810;2023-07-24T00:59:35;21.1;73.3
78514;SHT31;67814;51.976;5.810;2023-07-24T01:02:04;21.1;73.2
78514;SHT31;67814;51.976;5.810;2023-07-24T01:04:33;21.1;73.7
78514;SHT31;67814;51.976;5.810;2023-07-24T01:07:02;21.1;73.6
78514;SHT31;67814;51.976;5.810;2023-07-24T01:09:30;21.1;73.7
78514;SHT31;67814;51.976;5.810;2023-07-24T01:12:04;21.1;73.7
78514;SHT31;67814;51.976;5.810;2023-07-24T01:14:38;21.1;73.7
78514;SHT31;67814;51.976;5.810;2023-07-24T01:17:14;21.1;73.7
78514;SHT31;67814;51.976;5.810;2023-07-24T01:19:47;21.1;73.8
78514;SHT31;67814;51.976;5.810;2023-07-24T01:22:29;21.1;73.8
78514;SHT31;67814;51.976;5.810;2023-07-24T01:25:08;21.1;73.8
78514;SHT31;67814;51.976;5.810;2023-07-24T01:27:42;21.1;74.1
78514;SHT31;67814;51.976;5.810;2023-07-24T01:30:12;21.1;74.1
78514;SHT31;67814;51.976;5.810;2023-07-24T01:32:43;21.1;74.0
78514;SHT31;67814;51.976;5.810;2023-07-24T01:35:12;21.1;73.9
78514;SHT31;67814;51.976;5.810;2023-07-24T01:37:41;21.1;74.0
78514;SHT31;67814;51.976;5.810;2023-07-24T01:40:12;21.1;73.8
78514;SHT31;67814;51.976;5.810;2023-07-24T01:42:43;21.1;73.5
78514;SHT31;67814;51.976;5.810;2023-07-24T01:45:12;21.1;73.8
78514;SHT31;67814;51.976;5.810;2023-07-24T01:47:40;21.1;73.7
78514;SHT31;67814;51.976;5.810;2023-07-24T01:50:09;21.1;73.7
78514;SHT31;67814;51.976;5.810;2023-07-24T01:52:40;21.1;73.7
78514;SHT31;67814;51.976;5.810;2023-07-24T01:55:09;21.1;73.7
78514;SHT31;67814;51.976;5.810;2023-07-24T01:57:37;21.0;73.8
78514;SHT31;67814;51.976;5.810;2023-07-24T02:00:07;21.0;73.9
78514;SHT31;67814;51.976;5.810;2023-07-24T02:02:36;21.0;74.1
78514;SHT31;67814;51.976;5.810;2023-07-24T02:05:05;21.0;74.2
78514;SHT31;67814;51.976;5.810;2023-07-24T02:07:33;21.0;74.3
78514;SHT31;67814;51.976;5.810;2023-07-24T02:10:02;21.0;74.3
78514;SHT31;67814;51.976;5.810;2023-07-24T02:12:31;21.0;74.3
78514;SHT31;67814;51.976;5.810;2023-07-24T02:14:59;21.0;74.4
78514;SHT31;67814;51.976;5.810;2023-07-24T02:17:28;21.0;74.6
78514;SHT31;67814;51.976;5.810;2023-07-24T02:19:56;21.0;74.6
78514;SHT31;67814;51.976;5.810;2023-07-24T02:22:25;21.0;74.6
78514;SHT31;67814;51.976;5.810;2023-07-24T02:24:54;21.0;74.5
78514;SHT31;67814;51.976;5.810;2023-07-24T02:27:31;21.0;74.6
78514;SHT31;67814;51.976;5.810;2023-07-24T02:30:00;21.0;74.5
78514;SHT31;67814;51.976;5.810;2023-07-24T02:32:29;21.0;74.5
78514;SHT31;67814;51.976;5.810;2023-07-24T02:34:58;21.0;74.8
78514;SHT31;67814;51.976;5.810;2023-07-24T02:37:27;21.0;74.7
78514;SHT31;67814;51.976;5.810;2023-07-24T02:39:55;21.0;74.7
78514;SHT31;67814;51.976;5.810;2023-07-24T02:42:24;21.1;74.7
78514;SHT31;67814;51.976;5.810;2023-07-24T02:44:52;21.1;74.6
78514;SHT31;67814;51.976;5.810;2023-07-24T02:47:21;21.1;74.6
78514;SHT31;67814;51.976;5.810;2023-07-24T02:49:49;21.1;74.4
78514;SHT31;67814;51.976;5.810;2023-07-24T02:52:18;21.1;74.3
78514;SHT31;67814;51.976;5.810;2023-07-24T02:54:46;21.1;74.4
78514;SHT31;67814;51.976;5.810;2023-07-24T02:57:15;21.2;74.3
78514;SHT31;67814;51.976;5.810;2023-07-24T02:59:43;21.2;74.1
78514;SHT31;67814;51.976;5.810;2023-07-24T03:02:13;21.2;74.2
78514;SHT31;67814;51.976;5.810;2023-07-24T03:04:42;21.2;74.2
78514;SHT31;67814;51.976;5.810;2023-07-24T03:07:10;21.2;74.1
78514;SHT31;67814;51.976;5.810;2023-07-24T03:09:39;21.2;74.2
78514;SHT31;67814;51.976;5.810;2023-07-24T03:12:08;21.2;74.2
78514;SHT31;67814;51.976;5.810;2023-07-24T03:14:37;21.2;74.2
78514;SHT31;67814;51.976;5.810;2023-07-24T03:17:08;21.2;73.6
78514;SHT31;67814;51.976;5.810;2023-07-24T03:19:36;21.2;73.9
78514;SHT31;67814;51.976;5.810;2023-07-24T03:22:05;21.1;73.8
78514;SHT31;67814;51.976;5.810;2023-07-24T03:24:34;21.1;73.9
78514;SHT31;67814;51.976;5.810;2023-07-24T03:27:03;21.1;74.1
78514;SHT31;67814;51.976;5.810;2023-07-24T03:29:32;21.0;74.1
78514;SHT31;67814;51.976;5.810;2023-07-24T03:32:01;21.0;74.4
78514;SHT31;67814;51.976;5.810;2023-07-24T03:34:31;21.0;74.7
78514;SHT31;67814;51.976;5.810;2023-07-24T03:36:59;20.9;74.7
78514;SHT31;67814;51.976;5.810;2023-07-24T03:39:28;20.9;75.0
78514;SHT31;67814;51.976;5.810;2023-07-24T03:41:56;20.9;75.2
78514;SHT31;67814;51.976;5.810;2023-07-24T03:44:25;20.9;75.4
78514;SHT31;67814;51.976;5.810;2023-07-24T03:46:53;20.9;75.6
78514;SHT31;67814;51.976;5.810;2023-07-24T03:49:22;20.8;75.6
78514;SHT31;67814;51.976;5.810;2023-07-24T03:51:50;20.8;75.4
78514;SHT31;67814;51.976;5.810;2023-07-24T03:54:19;20.8;75.6
78514;SHT31;67814;51.976;5.810;2023-07-24T03:56:47;20.8;75.9
78514;SHT31;67814;51.976;5.810;2023-07-24T03:59:16;20.7;76.1
78514;SHT31;67814;51.976;5.810;2023-07-24T04:01:44;20.7;76.4
78514;SHT31;67814;51.976;5.810;2023-07-24T04:04:12;20.6;76.7
78514;SHT31;67814;51.976;5.810;2023-07-24T04:06:41;20.6;76.7
78514;SHT31;67814;51.976;5.810;2023-07-24T04:09:10;20.6;76.7
78514;SHT31;67814;51.976;5.810;2023-07-24T04:11:41;20.5;76.8
78514;SHT31;67814;51.976;5.810;2023-07-24T04:14:10;20.5;76.9
78514;SHT31;67814;51.976;5.810;2023-07-24T04:16:38;20.5;77.0
78514;SHT31;67814;51.976;5.810;2023-07-24T04:19:07;20.4;76.9
78514;SHT31;67814;51.976;5.810;2023-07-24T04:21:35;20.4;76.5
78514;SHT31;67814;51.976;5.810;2023-07-24T04:24:04;20.4;76.5
78514;SHT31;67814;51.976;5.810;2023-07-24T04:26:33;20.4;76.8
78514;SHT31;67814;51.976;5.810;2023-07-24T04:29:01;20.3;76.7
78514;SHT31;67814;51.976;5.810;2023-07-24T04:31:30;20.3;76.7
78514;SHT31;67814;51.976;5.810;2023-07-24T04:33:58;20.3;76.5
78514;SHT31;67814;51.976;5.810;2023-07-24T04:36:27;20.3;76.8
78514;SHT31;67814;51.976;5.810;2023-07-24T04:38:55;20.3;76.7
78514;SHT31;67814;51.976;5.810;2023-07-24T04:41:24;20.3;76.7
78514;SHT31;67814;51.976;5.810;2023-07-24T04:43:52;20.2;77.0
78514;SHT31;67814;51.976;5.810;2023-07-24T04:46:21;20.2;76.9
78514;SHT31;67814;51.976;5.810;2023-07-24T04:48:49;20.2;76.9
78514;SHT31;67814;51.976;5.810;2023-07-24T04:51:17;20.2;76.6
78514;SHT31;67814;51.976;5.810;2023-07-24T04:53:46;20.2;77.0
78514;SHT31;67814;51.976;5.810;2023-07-24T04:56:15;20.2;77.0
78514;SHT31;67814;51.976;5.810;2023-07-24T04:58:43;20.2;76.8
78514;SHT31;67814;51.976;5.810;2023-07-24T05:01:12;20.3;76.8
78514;SHT31;67814;51.976;5.810;2023-07-24T05:03:40;20.3;77.0
78514;SHT31;67814;51.976;5.810;2023-07-24T05:06:09;20.3;76.8
78514;SHT31;67814;51.976;5.810;2023-07-24T05:08:37;20.3;76.8
78514;SHT31;67814;51.976;5.810;2023-07-24T05:11:06;20.3;76.8
78514;SHT31;67814;51.976;5.810;2023-07-24T05:13:34;20.3;76.2
78514;SHT31;67814;51.976;5.810;2023-07-24T05:16:03;20.3;76.1
78514;SHT31;67814;51.976;5.810;2023-07-24T05:18:31;20.4;76.0
78514;SHT31;67814;51.976;5.810;2023-07-24T05:21:00;20.4;75.8
78514;SHT31;67814;51.976;5.810;2023-07-24T05:23:30;20.4;75.7
78514;SHT31;67814;51.976;5.810;2023-07-24T05:26:00;20.4;75.7
78514;SHT31;67814;51.976;5.810;2023-07-24T05:28:30;20.4;74.9
78514;SHT31;67814;51.976;5.810;2023-07-24T05:31:02;20.5;75.1
78514;SHT31;67814;51.976;5.810;2023-07-24T05:33:31;20.5;74.9
78514;SHT31;67814;51.976;5.810;2023-07-24T05:36:01;20.5;74.7
78514;SHT31;67814;51.976;5.810;2023-07-24T05:38:30;20.5;75.2
78514;SHT31;67814;51.976;5.810;2023-07-24T05:41:01;20.5;74.6
78514;SHT31;67814;51.976;5.810;2023-07-24T05:43:30;20.5;75.1
78514;SHT31;67814;51.976;5.810;2023-07-24T05:45:59;20.5;74.6
78514;SHT31;67814;51.976;5.810;2023-07-24T05:48:28;20.5;74.7
78514;SHT31;67814;51.976;5.810;2023-07-24T05:50:56;20.6;74.4
78514;SHT31;67814;51.976;5.810;2023-07-24T05:53:24;20.6;74.4
78514;SHT31;67814;51.976;5.810;2023-07-24T05:56:02;20.6;74.1
78514;SHT31;67814;51.976;5.810;2023-07-24T05:58:31;20.6;73.9
78514;SHT31;67814;51.976;5.810;2023-07-24T06:01:00;20.6;73.9
78514;SHT31;67814;51.976;5.810;2023-07-24T06:03:30;20.6;74.4
78514;SHT31;67814;51.976;5.810;2023-07-24T06:05:59;20.6;74.4
78514;SHT31;67814;51.976;5.810;2023-07-24T06:08:27;20.6;74.8
78514;SHT31;67814;51.976;5.810;2023-07-24T06:10:56;20.6;73.6
78514;SHT31;67814;51.976;5.810;2023-07-24T06:13:24;20.6;73.6
78514;SHT31;67814;51.976;5.810;2023-07-24T06:15:53;20.6;74.1
78514;SHT31;67814;51.976;5.810;2023-07-24T06:18:23;20.6;73.2
78514;SHT31;67814;51.976;5.810;2023-07-24T06:20:54;20.6;74.0
78514;SHT31;67814;51.976;5.810;2023-07-24T06:23:22;20.5;73.9
78514;SHT31;67814;51.976;5.810;2023-07-24T06:25:51;20.5;73.5
78514;SHT31;67814;51.976;5.810;2023-07-24T06:28:20;20.5;74.3
78514;SHT31;67814;51.976;5.810;2023-07-24T06:30:52;20.6;74.0
78514;SHT31;67814;51.976;5.810;2023-07-24T06:33:21;20.6;74.5
78514;SHT31;67814;51.976;5.810;2023-07-24T06:35:50;20.6;74.9
78514;SHT31;67814;51.976;5.810;2023-07-24T06:38:18;20.6;74.4
78514;SHT31;67814;51.976;5.810;2023-07-24T06:40:49;20.7;74.6
78514;SHT31;67814;51.976;5.810;2023-07-24T06:43:17;20.8;73.9
78514;SHT31;67814;51.976;5.810;2023-07-24T06:45:45;20.8;73.0
78514;SHT31;67814;51.976;5.810;2023-07-24T06:48:14;20.9;73.9
78514;SHT31;67814;51.976;5.810;2023-07-24T06:50:42;20.9;73.3
78514;SHT31;67814;51.976;5.810;2023-07-24T06:53:11;20.9;73.3
78514;SHT31;67814;51.976;5.810;2023-07-24T06:55:41;21.0;72.4
78514;SHT31;67814;51.976;5.810;2023-07-24T06:58:09;21.0;73.7
78514;SHT31;67814;51.976;5.810;2023-07-24T07:00:38;21.0;73.7
78514;SHT31;67814;51.976;5.810;2023-07-24T07:03:06;21.0;73.3
78514;SHT31;67814;51.976;5.810;2023-07-24T07:05:35;21.0;72.1
78514;SHT31;67814;51.976;5.810;2023-07-24T07:08:03;21.1;73.0
78514;SHT31;67814;51.976;5.810;2023-07-24T07:10:32;21.1;72.9
78514;SHT31;67814;51.976;5.810;2023-07-24T07:13:01;21.1;72.5
78514;SHT31;67814;51.976;5.810;2023-07-24T07:15:29;21.2;72.7
78514;SHT31;67814;51.976;5.810;2023-07-24T07:17:58;21.3;73.0
78514;SHT31;67814;51.976;5.810;2023-07-24T07:20:26;21.3;71.2
78514;SHT31;67814;51.976;5.810;2023-07-24T07:22:54;21.4;71.9
78514;SHT31;67814;51.976;5.810;2023-07-24T07:25:23;21.5;71.7
78514;SHT31;67814;51.976;5.810;2023-07-24T07:27:51;21.7;71.1
78514;SHT31;67814;51.976;5.810;2023-07-24T07:30:20;21.8;70.6
78514;SHT31;67814;51.976;5.810;2023-07-24T07:32:48;21.9;70.6
78514;SHT31;67814;51.976;5.810;2023-07-24T07:35:17;22.1;68.7
78514;SHT31;67814;51.976;5.810;2023-07-24T07:37:45;22.1;68.9
78514;SHT31;67814;51.976;5.810;2023-07-24T07:40:14;22.2;69.2
78514;SHT31;67814;51.976;5.810;2023-07-24T07:42:42;22.3;68.6
78514;SHT31;67814;51.976;5.810;2023-07-24T07:45:13;22.3;68.2
78514;SHT31;67814;51.976;5.810;2023-07-24T07:47:42;22.4;66.5
78514;SHT31;67814;51.976;5.810;2023-07-24T07:50:11;22.4;65.9
78514;SHT31;67814;51.976;5.810;2023-07-24T07:52:39;22.5;66.7
78514;SHT31;67814;51.976;5.810;2023-07-24T07:55:08;22.5;64.5
78514;SHT31;67814;51.976;5.810;2023-07-24T07:57:38;22.5;65.0
78514;SHT31;67814;51.976;5.810;2023-07-24T08:00:07;22.6;64.3
78514;SHT31;67814;51.976;5.810;2023-07-24T08:02:38;22.6;65.2
78514;SHT31;67814;51.976;5.810;2023-07-24T08:05:09;22.6;65.1
78514;SHT31;67814;51.976;5.810;2023-07-24T08:07:38;22.5;66.4
78514;SHT31;67814;51.976;5.810;2023-07-24T08:10:07;22.5;65.2
78514;SHT31;67814;51.976;5.810;2023-07-24T08:12:37;22.4;67.4
78514;SHT31;67814;51.976;5.810;2023-07-24T08:15:06;22.3;68.2
78514;SHT31;67814;51.976;5.810;2023-07-24T08:17:35;22.3;68.8
78514;SHT31;67814;51.976;5.810;2023-07-24T08:20:05;22.2;69.2
78514;SHT31;67814;51.976;5.810;2023-07-24T08:22:34;22.2;70.8
78514;SHT31;67814;51.976;5.810;2023-07-24T08:25:02;22.2;70.7
78514;SHT31;67814;51.976;5.810;2023-07-24T08:27:31;22.3;70.8
78514;SHT31;67814;51.976;5.810;2023-07-24T08:30:00;22.3;70.0
78514;SHT31;67814;51.976;5.810;2023-07-24T08:32:28;22.4;70.1
78514;SHT31;67814;51.976;5.810;2023-07-24T08:34:57;22.5;66.1
78514;SHT31;67814;51.976;5.810;2023-07-24T08:37:25;22.5;66.5
78514;SHT31;67814;51.976;5.810;2023-07-24T08:39:53;22.5;65.7
78514;SHT31;67814;51.976;5.810;2023-07-24T08:42:22;22.5;66.8
78514;SHT31;67814;51.976;5.810;2023-07-24T08:44:52;22.6;68.5
78514;SHT31;67814;51.976;5.810;2023-07-24T08:47:21;22.6;65.0
78514;SHT31;67814;51.976;5.810;2023-07-24T08:49:54;22.6;67.5
78514;SHT31;67814;51.976;5.810;2023-07-24T08:52:23;22.7;66.0
78514;SHT31;67814;51.976;5.810;2023-07-24T08:54:55;22.8;64.8
78514;SHT31;67814;51.976;5.810;2023-07-24T08:57:27;22.8;66.0
78514;SHT31;67814;51.976;5.810;2023-07-24T08:59:55;22.8;65.5
78514;SHT31;67814;51.976;5.810;2023-07-24T09:02:24;22.9;63.7
78514;SHT31;67814;51.976;5.810;2023-07-24T09:04:53;22.9;64.5
78514;SHT31;67814;51.976;5.810;2023-07-24T09:07:22;23.0;65.4
78514;SHT31;67814;51.976;5.810;2023-07-24T09:09:50;23.0;65.6
78514;SHT31;67814;51.976;5.810;2023-07-24T09:12:21;23.1;64.6
78514;SHT31;67814;51.976;5.810;2023-07-24T09:15:03;23.2;63.8
78514;SHT31;67814;51.976;5.810;2023-07-24T09:17:31;23.2;64.4
78514;SHT31;67814;51.976;5.810;2023-07-24T09:20:00;23.3;63.2
78514;SHT31;67814;51.976;5.810;2023-07-24T09:22:29;23.3;62.2
78514;SHT31;67814;51.976;5.810;2023-07-24T09:25:00;23.4;61.0
78514;SHT31;67814;51.976;5.810;2023-07-24T09:27:32;23.4;61.0
78514;SHT31;67814;51.976;5.810;2023-07-24T09:30:01;23.4;62.1
78514;SHT31;67814;51.976;5.810;2023-07-24T09:32:29;23.5;59.9
78514;SHT31;67814;51.976;5.810;2023-07-24T09:34:59;23.5;61.0
78514;SHT31;67814;51.976;5.810;2023-07-24T09:37:33;23.5;60.5
78514;SHT31;67814;51.976;5.810;2023-07-24T09:40:03;23.5;59.5
78514;SHT31;67814;51.976;5.810;2023-07-24T09:42:34;23.4;60.2
78514;SHT31;67814;51.976;5.810;2023-07-24T09:45:04;23.4;60.0
78514;SHT31;67814;51.976;5.810;2023-07-24T09:47:34;23.4;58.9
78514;SHT31;67814;51.976;5.810;2023-07-24T09:50:05;23.4;59.8
78514;SHT31;67814;51.976;5.810;2023-07-24T09:52:36;23.3;59.6
78514;SHT31;67814;51.976;5.810;2023-07-24T09:55:11;23.3;60.5
78514;SHT31;67814;51.976;5.810;2023-07-24T09:57:40;23.3;60.4
78514;SHT31;67814;51.976;5.810;2023-07-24T10:00:11;23.3;61.4
78514;SHT31;67814;51.976;5.810;2023-07-24T10:02:41;23.3;59.9
78514;SHT31;67814;51.976;5.810;2023-07-24T10:05:11;23.3;61.2
78514;SHT31;67814;51.976;5.810;2023-07-24T10:07:42;23.3;60.1
78514;SHT31;67814;51.976;5.810;2023-07-24T10:10:11;23.2;61.9
78514;SHT31;67814;51.976;5.810;2023-07-24T10:12:41;23.2;63.1
78514;SHT31;67814;51.976;5.810;2023-07-24T10:15:10;23.2;62.1
78514;SHT31;67814;51.976;5.810;2023-07-24T10:17:41;23.2;61.3
78514;SHT31;67814;51.976;5.810;2023-07-24T10:20:15;23.2;60.9
78514;SHT31;67814;51.976;5.810;2023-07-24T10:22:44;23.2;60.3
78514;SHT31;67814;51.976;5.810;2023-07-24T10:25:13;23.2;60.8
78514;SHT31;67814;51.976;5.810;2023-07-24T10:27:42;23.2;59.3
78514;SHT31;67814;51.976;5.810;2023-07-24T10:30:14;23.2;61.0
78514;SHT31;67814;51.976;5.810;2023-07-24T10:32:49;23.2;61.0
78514;SHT31;67814;51.976;5.810;2023-07-24T10:35:20;23.1;59.8
78514;SHT31;67814;51.976;5.810;2023-07-24T10:38:01;23.1;61.0
78514;SHT31;67814;51.976;5.810;2023-07-24T10:40:30;23.1;62.0
78514;SHT31;67814;51.976;5.810;2023-07-24T10:43:04;23.1;61.6
78514;SHT31;67814;51.976;5.810;2023-07-24T10:45:40;23.1;62.0
78514;SHT31;67814;51.976;5.810;2023-07-24T10:48:09;23.1;59.0
78514;SHT31;67814;51.976;5.810;2023-07-24T10:50:39;23.1;59.4
78514;SHT31;67814;51.976;5.810;2023-07-24T10:53:07;23.1;59.7
78514;SHT31;67814;51.976;5.810;2023-07-24T10:55:36;23.1;59.6
78514;SHT31;67814;51.976;5.810;2023-07-24T10:58:06;23.1;61.1
78514;SHT31;67814;51.976;5.810;2023-07-24T11:00:34;23.1;60.7
78514;SHT31;67814;51.976;5.810;2023-07-24T11:03:03;23.1;61.7
78514;SHT31;67814;51.976;5.810;2023-07-24T11:05:34;23.1;59.8
78514;SHT31;67814;51.976;5.810;2023-07-24T11:08:10;23.1;60.7
78514;SHT31;67814;51.976;5.810;2023-07-24T11:10:44;23.1;61.3
78514;SHT31;67814;51.976;5.810;2023-07-24T11:13:14;23.1;61.6
78514;SHT31;67814;51.976;5.810;2023-07-24T11:15:42;23.1;62.3
78514;SHT31;67814;51.976;5.810;2023-07-24T11:18:11;23.1;61.0
78514;SHT31;67814;51.976;5.810;2023-07-24T11:20:44;23.2;61.1
78514;SHT31;67814;51.976;5.810;2023-07-24T11:23:13;23.2;62.7
78514;SHT31;67814;51.976;5.810;2023-07-24T11:25:44;23.3;59.2
78514;SHT31;67814;51.976;5.810;2023-07-24T11:28:14;23.3;60.6
78514;SHT31;67814;51.976;5.810;2023-07-24T11:30:43;23.4;59.6
78514;SHT31;67814;51.976;5.810;2023-07-24T11:33:14;23.4;59.1
78514;SHT31;67814;51.976;5.810;2023-07-24T11:35:43;23.5;58.5
78514;SHT31;67814;51.976;5.810;2023-07-24T11:38:12;23.5;59.4
78514;SHT31;67814;51.976;5.810;2023-07-24T11:40:43;23.5;59.0
78514;SHT31;67814;51.976;5.810;2023-07-24T11:43:18;23.5;58.9
78514;SHT31;67814;51.976;5.810;2023-07-24T11:45:48;23.5;58.2
78514;SHT31;67814;51.976;5.810;2023-07-24T11:48:19;23.5;59.7
78514;SHT31;67814;51.976;5.810;2023-07-24T11:50:49;23.5;58.8
78514;SHT31;67814;51.976;5.810;2023-07-24T11:53:23;23.5;59.2
78514;SHT31;67814;51.976;5.810;2023-07-24T11:55:53;23.6;58.0
78514;SHT31;67814;51.976;5.810;2023-07-24T11:58:26;23.6;58.1
78514;SHT31;67814;51.976;5.810;2023-07-24T12:00:55;23.7;58.2
78514;SHT31;67814;51.976;5.810;2023-07-24T12:03:26;23.8;57.2
78514;SHT31;67814;51.976;5.810;2023-07-24T12:05:56;23.8;58.5
78514;SHT31;67814;51.976;5.810;2023-07-24T12:08:32;23.8;56.5
78514;SHT31;67814;51.976;5.810;2023-07-24T12:11:02;23.9;58.4
78514;SHT31;67814;51.976;5.810;2023-07-24T12:13:31;23.9;57.7
78514;SHT31;67814;51.976;5.810;2023-07-24T12:15:59;24.0;56.2
78514;SHT31;67814;51.976;5.810;2023-07-24T12:18:28;24.0;55.1
78514;SHT31;67814;51.976;5.810;2023-07-24T12:20:57;24.0;56.2
78514;SHT31;67814;51.976;5.810;2023-07-24T12:23:26;24.0;59.2
78514;SHT31;67814;51.976;5.810;2023-07-24T12:25:56;24.0;56.8
78514;SHT31;67814;51.976;5.810;2023-07-24T12:28:24;24.0;56.5
78514;SHT31;67814;51.976;5.810;2023-07-24T12:30:53;24.0;56.0
78514;SHT31;67814;51.976;5.810;2023-07-24T12:33:21;24.0;58.4
78514;SHT31;67814;51.976;5.810;2023-07-24T12:35:50;24.0;59.3
78514;SHT31;67814;51.976;5.810;2023-07-24T12:38:19;24.0;58.4
78514;SHT31;67814;51.976;5.810;2023-07-24T12:40:47;24.0;58.5
78514;SHT31;67814;51.976;5.810;2023-07-24T12:43:16;24.0;58.3
78514;SHT31;67814;51.976;5.810;2023-07-24T12:45:45;24.0;58.1
78514;SHT31;67814;51.976;5.810;2023-07-24T12:48:13;23.9;56.6
78514;SHT31;67814;51.976;5.810;2023-07-24T12:50:43;23.9;59.0
78514;SHT31;67814;51.976;5.810;2023-07-24T12:53:12;23.9;56.0
78514;SHT31;67814;51.976;5.810;2023-07-24T12:55:40;23.9;56.6
78514;SHT31;67814;51.976;5.810;2023-07-24T12:58:09;23.9;55.1
78514;SHT31;67814;51.976;5.810;2023-07-24T13:00:37;23.9;54.5
78514;SHT31;67814;51.976;5.810;2023-07-24T13:03:06;23.9;55.0
78514;SHT31;67814;51.976;5.810;2023-07-24T13:05:34;23.9;56.5
78514;SHT31;67814;51.976;5.810;2023-07-24T13:08:03;23.9;57.5
78514;SHT31;67814;51.976;5.810;2023-07-24T13:10:32;23.9;56.0
78514;SHT31;67814;51.976;5.810;2023-07-24T13:13:01;23.9;55.8
78514;SHT31;67814;51.976;5.810;2023-07-24T13:15:29;23.9;57.0
78514;SHT31;67814;51.976;5.810;2023-07-24T13:17:58;24.0;56.1
78514;SHT31;67814;51.976;5.810;2023-07-24T13:20:27;24.0;56.0
78514;SHT31;67814;51.976;5.810;2023-07-24T13:22:56;24.0;58.3
78514;SHT31;67814;51.976;5.810;2023-07-24T13:25:24;24.1;57.0
78514;SHT31;67814;51.976;5.810;2023-07-24T13:27:52;24.1;56.2
78514;SHT31;67814;51.976;5.810;2023-07-24T13:30:21;24.1;55.8
78514;SHT31;67814;51.976;5.810;2023-07-24T13:32:49;24.2;54.8
78514;SHT31;67814;51.976;5.810;2023-07-24T13:35:18;24.2;55.6
78514;SHT31;67814;51.976;5.810;2023-07-24T13:37:46;24.2;56.4
78514;SHT31;67814;51.976;5.810;2023-07-24T13:40:15;24.3;55.8
78514;SHT31;67814;51.976;5.810;2023-07-24T13:42:43;24.3;54.9
78514;SHT31;67814;51.976;5.810;2023-07-24T13:45:12;24.3;56.9
78514;SHT31;67814;51.976;5.810;2023-07-24T13:47:41;24.4;55.6
78514;SHT31;67814;51.976;5.810;2023-07-24T13:50:10;24.4;54.7
78514;SHT31;67814;51.976;5.810;2023-07-24T13:52:38;24.5;55.2
78514;SHT31;67814;51.976;5.810;2023-07-24T13:55:07;24.5;55.1
78514;SHT31;67814;51.976;5.810;2023-07-24T13:57:36;24.6;54.3
78514;SHT31;67814;51.976;5.810;2023-07-24T14:00:05;24.7;54.1
78514;SHT31;67814;51.976;5.810;2023-07-24T14:02:34;24.7;54.5
78514;SHT31;67814;51.976;5.810;2023-07-24T14:05:02;24.8;54.1
78514;SHT31;67814;51.976;5.810;2023-07-24T14:07:31;24.8;53.1
78514;SHT31;67814;51.976;5.810;2023-07-24T14:09:59;24.8;52.9
78514;SHT31;67814;51.976;5.810;2023-07-24T14:12:28;24.8;53.9
78514;SHT31;67814;51.976;5.810;2023-07-24T14:14:56;24.8;53.8
78514;SHT31;67814;51.976;5.810;2023-07-24T14:17:25;24.8;54.9
78514;SHT31;67814;51.976;5.810;2023-07-24T14:19:53;24.8;54.3
78514;SHT31;67814;51.976;5.810;2023-07-24T14:22:22;24.8;54.1
78514;SHT31;67814;51.976;5.810;2023-07-24T14:24:50;24.8;54.1
78514;SHT31;67814;51.976;5.810;2023-07-24T14:27:19;24.7;53.3
78514;SHT31;67814;51.976;5.810;2023-07-24T14:29:48;24.7;55.3
78514;SHT31;67814;51.976;5.810;2023-07-24T14:32:16;24.6;55.1
78514;SHT31;67814;51.976;5.810;2023-07-24T14:34:49;24.5;54.3
78514;SHT31;67814;51.976;5.810;2023-07-24T14:37:18;24.5;55.0
78514;SHT31;67814;51.976;5.810;2023-07-24T14:39:49;24.4;54.0
78514;SHT31;67814;51.976;5.810;2023-07-24T14:42:18;24.4;54.2
78514;SHT31;67814;51.976;5.810;2023-07-24T14:44:47;24.4;54.6
78514;SHT31;67814;51.976;5.810;2023-07-24T14:47:17;24.3;56.8
78514;SHT31;67814;51.976;5.810;2023-07-24T14:49:45;24.3;58.3
78514;SHT31;67814;51.976;5.810;2023-07-24T14:52:14;24.2;57.6
78514;SHT31;67814;51.976;5.810;2023-07-24T14:54:42;24.1;58.0
78514;SHT31;67814;51.976;5.810;2023-07-24T14:57:11;24.0;58.7
78514;SHT31;67814;51.976;5.810;2023-07-24T14:59:40;23.8;62.1
78514;SHT31;67814;51.976;5.810;2023-07-24T15:02:10;23.5;63.6
78514;SHT31;67814;51.976;5.810;2023-07-24T15:04:39;23.4;64.0
78514;SHT31;67814;51.976;5.810;2023-07-24T15:07:07;23.2;65.8
78514;SHT31;67814;51.976;5.810;2023-07-24T15:09:37;23.2;66.9
78514;SHT31;67814;51.976;5.810;2023-07-24T15:12:06;23.1;67.5
78514;SHT31;67814;51.976;5.810;2023-07-24T15:14:35;23.1;67.8
78514;SHT31;67814;51.976;5.810;2023-07-24T15:17:04;23.0;69.2
78514;SHT31;67814;51.976;5.810;2023-07-24T15:19:33;23.0;68.6
78514;SHT31;67814;51.976;5.810;2023-07-24T15:22:01;23.0;68.5
78514;SHT31;67814;51.976;5.810;2023-07-24T15:24:30;23.0;69.6
78514;SHT31;67814;51.976;5.810;2023-07-24T15:26:58;23.0;68.8
78514;SHT31;67814;51.976;5.810;2023-07-24T15:29:32;23.0;69.7
78514;SHT31;67814;51.976;5.810;2023-07-24T15:32:01;23.0;68.5
78514;SHT31;67814;51.976;5.810;2023-07-24T15:34:30;23.1;69.0
78514;SHT31;67814;51.976;5.810;2023-07-24T15:36:58;23.1;68.8
78514;SHT31;67814;51.976;5.810;2023-07-24T15:39:27;23.1;66.6
78514;SHT31;67814;51.976;5.810;2023-07-24T15:41:55;23.2;65.2
78514;SHT31;67814;51.976;5.810;2023-07-24T15:44:24;23.2;66.3
78514;SHT31;67814;51.976;5.810;2023-07-24T15:46:53;23.2;64.2
78514;SHT31;67814;51.976;5.810;2023-07-24T15:49:21;23.1;65.0
78514;SHT31;67814;51.976;5.810;2023-07-24T15:51:50;23.1;65.9
78514;SHT31;67814;51.976;5.810;2023-07-24T15:54:18;23.0;66.7
78514;SHT31;67814;51.976;5.810;2023-07-24T15:56:49;23.0;65.8
78514;SHT31;67814;51.976;5.810;2023-07-24T15:59:17;23.0;64.6
78514;SHT31;67814;51.976;5.810;2023-07-24T16:01:46;22.9;65.7
78514;SHT31;67814;51.976;5.810;2023-07-24T16:04:14;22.9;66.3
78514;SHT31;67814;51.976;5.810;2023-07-24T16:06:43;22.9;64.2
78514;SHT31;67814;51.976;5.810;2023-07-24T16:09:11;22.8;64.3
78514;SHT31;67814;51.976;5.810;2023-07-24T16:11:40;22.7;63.4
78514;SHT31;67814;51.976;5.810;2023-07-24T16:14:10;22.7;64.5